Time;durP1;ratioP1;P1;durP2;ratioP2;P2;SDS_P1;SDS_P2;PMS_P1;PMS_P2;Temp;Humidity;BMP_temperature;BMP_pressure;BME280_temperature;BME280_humidity;BME280_pressure;Samples;Min_cycle;Max_cycle;Signal;HPM_P1;HPM_P2
2023/08/31 00:01:18;;;;;;;;;;;11.70;99.90;;;;;;5066065;28;19932;-40
2023/08/31 00:03:45;;;;;;;;;;;11.70;99.90;;;;;;5070365;28;19928;-40
2023/08/31 00:06:13;;;;;;;;;;;11.70;99.90;;;;;;5070423;28;20426;-40
2023/08/31 00:08:40;;;;;;;;;;;11.70;99.90;;;;;;5073697;28;19986;-40
2023/08/31 00:11:06;;;;;;;;;;;11.70;99.90;;;;;;5074964;28;19925;-40
2023/08/31 00:13:33;;;;;;;;;;;11.70;99.90;;;;;;5074558;28;20013;-40
2023/08/31 00:16:00;;;;;;;;;;;11.70;99.90;;;;;;5073626;28;19925;-40
2023/08/31 00:18:26;;;;;;;;;;;11.70;99.90;;;;;;5060981;28;19928;-40
2023/08/31 00:20:53;;;;;;;;;;;11.80;99.90;;;;;;5074599;28;20258;-40
2023/08/31 00:23:21;;;;;;;;;;;11.80;99.90;;;;;;5072150;28;19931;-40
2023/08/31 00:25:48;;;;;;;;;;;11.80;99.90;;;;;;5074612;28;19929;-40
2023/08/31 00:28:17;;;;;;;;;;;11.80;99.90;;;;;;5074515;28;19929;-40
2023/08/31 00:30:44;;;;;;;;;;;11.80;99.90;;;;;;5073919;28;19931;-40
2023/08/31 00:33:11;;;;;;;;;;;11.80;99.90;;;;;;5075193;28;19968;-40
2023/08/31 00:35:41;;;;;;;;;;;11.80;99.90;;;;;;5074613;28;20750;-40
2023/08/31 00:38:08;;;;;;;;;;;11.80;99.90;;;;;;5055436;28;19929;-40
2023/08/31 00:40:45;;;;;;;;;;;11.80;99.90;;;;;;5055217;28;19925;-40
2023/08/31 00:43:11;;;;;;;;;;;11.80;99.90;;;;;;5055257;28;20019;-40
2023/08/31 00:45:38;;;;;;;;;;;11.80;99.90;;;;;;5054119;28;19925;-40
2023/08/31 00:48:06;;;;;;;;;;;11.80;99.90;;;;;;5072506;28;20351;-40
2023/08/31 00:50:32;;;;;;;;;;;11.80;99.90;;;;;;5073591;28;19931;-40
2023/08/31 00:52:59;;;;;;;;;;;11.80;99.90;;;;;;5074956;28;20380;-40
2023/08/31 00:55:26;;;;;;;;;;;11.80;99.90;;;;;;5073876;28;19932;-40
2023/08/31 00:57:55;;;;;;;;;;;11.80;99.90;;;;;;5058681;28;19924;-40
2023/08/31 01:00:22;;;;;;;;;;;11.80;99.90;;;;;;5054818;28;19947;-40
2023/08/31 01:02:51;;;;;;;;;;;11.80;99.90;;;;;;5057871;28;19936;-40
2023/08/31 01:05:23;;;;;;;;;;;11.70;99.90;;;;;;5074849;28;19925;-40
2023/08/31 01:07:54;;;;;;;;;;;11.70;99.90;;;;;;5074221;28;20045;-40
2023/08/31 01:10:22;;;;;;;;;;;11.70;99.90;;;;;;5073224;28;19929;-41
2023/08/31 01:12:51;;;;;;;;;;;11.70;99.90;;;;;;5073576;28;19924;-41
2023/08/31 01:15:19;;;;;;;;;;;11.70;99.90;;;;;;5073593;28;19947;-40
2023/08/31 01:17:47;;;;;;;;;;;11.70;99.90;;;;;;5074298;28;19978;-40
2023/08/31 01:20:15;;;;;;;;;;;11.60;99.90;;;;;;5074312;28;19978;-40
2023/08/31 01:22:44;;;;;;;;;;;11.60;99.90;;;;;;5074040;28;19928;-40
2023/08/31 01:25:12;;;;;;;;;;;11.60;99.90;;;;;;5073572;28;20015;-40
2023/08/31 01:27:39;;;;;;;;;;;11.60;99.90;;;;;;5073733;28;19928;-40
2023/08/31 01:30:06;;;;;;;;;;;11.60;99.90;;;;;;5073555;28;20269;-40
2023/08/31 01:32:33;;;;;;;;;;;11.60;99.90;;;;;;5072737;28;19925;-40
2023/08/31 01:35:01;;;;;;;;;;;11.50;99.90;;;;;;5074017;28;19925;-40
2023/08/31 01:37:29;;;;;;;;;;;11.50;99.90;;;;;;5073839;28;19924;-40
2023/08/31 01:39:57;;;;;;;;;;;11.50;99.90;;;;;;5074094;28;19925;-41
2023/08/31 01:42:25;;;;;;;;;;;11.50;99.90;;;;;;5073187;28;19985;-40
2023/08/31 01:44:52;;;;;;;;;;;11.50;99.90;;;;;;5074217;28;19943;-40
2023/08/31 01:47:19;;;;;;;;;;;11.50;99.90;;;;;;5065129;28;19925;-40
2023/08/31 01:49:45;;;;;;;;;;;11.50;99.90;;;;;;5055907;28;19929;-40
2023/08/31 01:52:12;;;;;;;;;;;11.50;99.90;;;;;;5072965;28;19925;-40
2023/08/31 01:54:39;;;;;;;;;;;11.50;99.90;;;;;;5073774;28;19924;-40
2023/08/31 01:57:06;;;;;;;;;;;11.50;99.90;;;;;;5067108;28;20388;-40
2023/08/31 01:59:34;;;;;;;;;;;11.40;99.90;;;;;;5053699;28;19925;-40
2023/08/31 02:02:00;;;;;;;;;;;11.40;99.90;;;;;;5070194;28;20346;-40
2023/08/31 02:04:27;;;;;;;;;;;11.40;99.90;;;;;;5072030;28;19985;-40
2023/08/31 02:06:54;;;;;;;;;;;11.50;99.90;;;;;;5071880;28;19936;-40
2023/08/31 02:09:20;;;;;;;;;;;11.50;99.90;;;;;;5073111;28;20002;-40
2023/08/31 02:11:47;;;;;;;;;;;11.50;99.90;;;;;;5072386;28;19970;-40
2023/08/31 02:14:14;;;;;;;;;;;11.50;99.90;;;;;;5061119;28;20296;-40
2023/08/31 02:16:42;;;;;;;;;;;11.50;99.90;;;;;;5053524;28;19974;-40
2023/08/31 02:19:08;;;;;;;;;;;11.50;99.90;;;;;;5053420;28;19948;-40
2023/08/31 02:21:35;;;;;;;;;;;11.50;99.90;;;;;;5053635;28;19925;-40
2023/08/31 02:24:03;;;;;;;;;;;11.50;99.90;;;;;;5052092;28;19929;-40
2023/08/31 02:26:29;;;;;;;;;;;11.50;99.90;;;;;;5052311;28;19924;-40
2023/08/31 02:28:56;;;;;;;;;;;11.50;99.90;;;;;;5053184;28;19935;-40
2023/08/31 02:31:23;;;;;;;;;;;11.50;99.90;;;;;;5052049;28;19925;-40
2023/08/31 02:33:52;;;;;;;;;;;11.50;99.90;;;;;;5072488;28;19924;-40
2023/08/31 02:36:20;;;;;;;;;;;11.50;99.90;;;;;;5071888;28;19968;-40
2023/08/31 02:38:47;;;;;;;;;;;11.50;99.90;;;;;;5071700;28;19924;-40
2023/08/31 02:41:13;;;;;;;;;;;11.50;99.90;;;;;;5072913;28;19970;-41
2023/08/31 02:43:40;;;;;;;;;;;11.40;99.90;;;;;;5072734;28;19931;-40
2023/08/31 02:46:07;;;;;;;;;;;11.40;99.90;;;;;;5071997;28;19955;-40
2023/08/31 02:48:34;;;;;;;;;;;11.40;99.90;;;;;;5072996;28;20330;-40
2023/08/31 02:51:02;;;;;;;;;;;11.40;99.90;;;;;;5071389;28;19947;-40
2023/08/31 02:53:29;;;;;;;;;;;11.40;99.90;;;;;;5072178;28;19954;-40
2023/08/31 02:55:56;;;;;;;;;;;11.40;99.90;;;;;;5070998;28;19978;-40
2023/08/31 02:58:23;;;;;;;;;;;11.30;99.90;;;;;;5072925;28;19924;-40
2023/08/31 03:00:49;;;;;;;;;;;11.30;99.90;;;;;;5071746;28;20011;-40
2023/08/31 03:03:16;;;;;;;;;;;11.30;99.90;;;;;;5072243;28;19925;-40
2023/08/31 03:05:43;;;;;;;;;;;11.30;99.90;;;;;;5071769;28;19970;-40
2023/08/31 03:08:11;;;;;;;;;;;11.30;99.90;;;;;;5071591;28;19924;-40
2023/08/31 03:10:38;;;;;;;;;;;11.30;99.90;;;;;;5072033;28;19978;-40
2023/08/31 03:13:04;;;;;;;;;;;11.30;99.90;;;;;;5072055;28;19987;-40
2023/08/31 03:15:33;;;;;;;;;;;11.30;99.90;;;;;;5068236;28;19947;-40
2023/08/31 03:18:00;;;;;;;;;;;11.30;99.90;;;;;;5072514;28;19924;-40
2023/08/31 03:20:26;;;;;;;;;;;11.20;99.90;;;;;;5072581;28;19925;-40
2023/08/31 03:22:53;;;;;;;;;;;11.30;99.90;;;;;;5072444;28;19928;-40
2023/08/31 03:25:21;;;;;;;;;;;11.20;99.90;;;;;;5070327;28;19978;-40
2023/08/31 03:27:48;;;;;;;;;;;11.30;99.90;;;;;;5070724;28;19924;-40
2023/08/31 03:30:15;;;;;;;;;;;11.20;99.90;;;;;;5072498;28;19928;-40
2023/08/31 03:32:42;;;;;;;;;;;11.20;99.90;;;;;;5070868;28;19985;-40
2023/08/31 03:35:09;;;;;;;;;;;11.20;99.90;;;;;;5071064;28;20288;-40
2023/08/31 03:37:36;;;;;;;;;;;11.20;99.90;;;;;;5071941;28;20364;-40
2023/08/31 03:40:04;;;;;;;;;;;11.20;99.90;;;;;;5070608;28;19924;-40
2023/08/31 03:42:32;;;;;;;;;;;11.20;99.90;;;;;;5072005;28;19978;-40
2023/08/31 03:44:59;;;;;;;;;;;11.20;99.90;;;;;;5070793;28;19928;-40
2023/08/31 03:47:25;;;;;;;;;;;11.20;99.90;;;;;;5073822;28;19931;-40
2023/08/31 03:49:52;;;;;;;;;;;11.10;99.90;;;;;;5072581;28;19939;-40
2023/08/31 03:52:19;;;;;;;;;;;11.10;99.90;;;;;;5076048;28;19924;-40
2023/08/31 03:54:46;;;;;;;;;;;11.10;99.90;;;;;;5063875;28;20297;-40
2023/08/31 03:57:12;;;;;;;;;;;11.10;99.90;;;;;;5054883;28;19932;-40
2023/08/31 03:59:40;;;;;;;;;;;11.10;99.90;;;;;;5058901;28;19924;-40
2023/08/31 04:02:07;;;;;;;;;;;11.10;99.90;;;;;;5060705;28;19929;-40
2023/08/31 04:04:34;;;;;;;;;;;11.10;99.90;;;;;;5063911;28;20396;-40
2023/08/31 04:07:01;;;;;;;;;;;11.10;99.90;;;;;;5075269;28;19924;-41
2023/08/31 04:09:27;;;;;;;;;;;11.10;99.90;;;;;;5075619;28;19924;-40
2023/08/31 04:11:54;;;;;;;;;;;11.10;99.90;;;;;;5075329;28;19950;-40
2023/08/31 04:14:21;;;;;;;;;;;11.10;99.90;;;;;;5073980;28;19928;-40
2023/08/31 04:16:50;;;;;;;;;;;11.10;99.90;;;;;;5075531;28;20369;-40
2023/08/31 04:19:16;;;;;;;;;;;11.10;99.90;;;;;;5055805;28;19947;-40
2023/08/31 04:21:43;;;;;;;;;;;11.10;99.90;;;;;;5055585;28;19925;-40
2023/08/31 04:24:10;;;;;;;;;;;11.10;99.90;;;;;;5055561;28;20346;-40
2023/08/31 04:26:36;;;;;;;;;;;11.10;99.90;;;;;;5055836;28;19928;-40
2023/08/31 04:29:05;;;;;;;;;;;11.10;99.90;;;;;;5054632;28;19925;-40
2023/08/31 04:31:32;;;;;;;;;;;11.10;99.90;;;;;;5072472;28;19925;-40
2023/08/31 04:34:00;;;;;;;;;;;11.10;99.90;;;;;;5074151;28;19935;-40
2023/08/31 04:36:25;;;;;;;;;;;11.10;99.90;;;;;;5075413;28;20339;-40
2023/08/31 04:38:52;;;;;;;;;;;11.10;99.90;;;;;;5074195;28;19935;-40
2023/08/31 04:41:19;;;;;;;;;;;11.10;99.90;;;;;;5075237;28;20381;-40
2023/08/31 04:43:47;;;;;;;;;;;11.10;99.90;;;;;;5074696;28;19939;-40
2023/08/31 04:46:14;;;;;;;;;;;11.10;99.90;;;;;;5055180;28;20034;-40
2023/08/31 04:48:40;;;;;;;;;;;11.10;99.90;;;;;;5070170;28;19924;-40
2023/08/31 04:51:10;;;;;;;;;;;11.10;99.90;;;;;;5075135;28;19925;-40
2023/08/31 04:53:37;;;;;;;;;;;11.10;99.90;;;;;;5074601;28;20011;-40
2023/08/31 04:56:04;;;;;;;;;;;11.10;99.90;;;;;;5074373;28;19924;-40
2023/08/31 04:58:30;;;;;;;;;;;11.10;99.90;;;;;;5075119;28;19925;-40
2023/08/31 05:00:57;;;;;;;;;;;11.10;99.90;;;;;;5073513;28;19928;-40
2023/08/31 05:03:24;;;;;;;;;;;11.10;99.90;;;;;;5075064;28;20011;-40
2023/08/31 05:05:50;;;;;;;;;;;11.10;99.90;;;;;;5074713;28;19932;-40
2023/08/31 05:08:18;;;;;;;;;;;11.10;99.90;;;;;;5074773;28;19925;-40
2023/08/31 05:10:45;;;;;;;;;;;11.10;99.90;;;;;;5074292;28;19985;-41
2023/08/31 05:13:12;;;;;;;;;;;11.10;99.90;;;;;;5074815;28;19932;-40
2023/08/31 05:15:39;;;;;;;;;;;11.10;99.90;;;;;;5072348;28;20007;-40
2023/08/31 05:18:08;;;;;;;;;;;11.10;99.90;;;;;;5072396;28;19925;-40
2023/08/31 05:20:35;;;;;;;;;;;11.10;99.90;;;;;;5061483;28;19925;-40
2023/08/31 05:23:02;;;;;;;;;;;11.10;99.90;;;;;;5053426;28;19983;-40
2023/08/31 05:25:30;;;;;;;;;;;11.10;99.90;;;;;;5066327;28;20007;-40
2023/08/31 05:27:56;;;;;;;;;;;11.20;99.90;;;;;;5074435;28;19947;-40
2023/08/31 05:30:23;;;;;;;;;;;11.20;99.90;;;;;;5073555;28;19931;-40
2023/08/31 05:32:50;;;;;;;;;;;11.20;99.90;;;;;;5054291;28;20328;-40
2023/08/31 05:35:17;;;;;;;;;;;11.20;99.90;;;;;;5062106;28;19932;-40
2023/08/31 05:37:43;;;;;;;;;;;11.30;99.90;;;;;;5059583;28;19966;-40
2023/08/31 05:40:11;;;;;;;;;;;11.30;99.90;;;;;;5054783;28;19986;-40
2023/08/31 05:42:39;;;;;;;;;;;11.30;99.90;;;;;;5054191;28;19925;-40
2023/08/31 05:45:06;;;;;;;;;;;11.40;99.90;;;;;;5060494;28;20342;-40
2023/08/31 05:47:33;;;;;;;;;;;11.40;99.90;;;;;;5074078;28;19928;-40
2023/08/31 05:49:59;;;;;;;;;;;11.40;99.90;;;;;;5072971;28;19924;-40
2023/08/31 05:52:26;;;;;;;;;;;11.40;99.90;;;;;;5072914;28;19971;-40
2023/08/31 05:54:52;;;;;;;;;;;11.50;99.90;;;;;;5069581;28;19928;-39
2023/08/31 05:57:19;;;;;;;;;;;11.50;99.90;;;;;;5069295;28;19974;-40
2023/08/31 05:59:47;;;;;;;;;;;11.60;99.90;;;;;;5067237;28;19931;-40
2023/08/31 06:02:14;;;;;;;;;;;11.70;99.90;;;;;;5071223;28;20384;-40
2023/08/31 06:04:41;;;;;;;;;;;11.70;99.90;;;;;;5074140;28;20422;-40
2023/08/31 06:07:07;;;;;;;;;;;11.80;99.90;;;;;;5072410;28;19931;-40
2023/08/31 06:09:34;;;;;;;;;;;11.90;99.90;;;;;;5072825;28;19925;-40
2023/08/31 06:12:01;;;;;;;;;;;12.00;99.90;;;;;;5072326;28;19978;-40
2023/08/31 06:14:27;;;;;;;;;;;12.00;99.90;;;;;;5073342;28;19929;-40
2023/08/31 06:16:55;;;;;;;;;;;12.00;99.90;;;;;;5070815;28;19924;-40
2023/08/31 06:19:22;;;;;;;;;;;12.10;99.90;;;;;;5073209;28;19929;-40
2023/08/31 06:21:49;;;;;;;;;;;12.10;99.90;;;;;;5073125;28;19973;-40
2023/08/31 06:24:15;;;;;;;;;;;12.20;99.90;;;;;;5071906;28;20378;-40
2023/08/31 06:26:42;;;;;;;;;;;12.30;99.90;;;;;;5068390;28;19994;-40
2023/08/31 06:29:10;;;;;;;;;;;12.50;99.90;;;;;;5073132;28;19931;-40
2023/08/31 06:31:37;;;;;;;;;;;12.50;99.90;;;;;;5073279;28;19924;-40
2023/08/31 06:34:05;;;;;;;;;;;12.70;99.90;;;;;;5072187;28;19974;-40
2023/08/31 06:36:32;;;;;;;;;;;12.80;99.90;;;;;;5072357;28;19955;-40
2023/08/31 06:38:58;;;;;;;;;;;12.90;99.90;;;;;;5071591;28;20347;-40
2023/08/31 06:41:25;;;;;;;;;;;13.00;99.90;;;;;;5071946;28;19925;-41
2023/08/31 06:43:52;;;;;;;;;;;13.10;99.90;;;;;;5069742;28;20380;-40
2023/08/31 06:46:19;;;;;;;;;;;13.20;99.90;;;;;;5070700;28;20051;-40
2023/08/31 06:48:45;;;;;;;;;;;13.30;99.90;;;;;;5059185;28;20292;-41
2023/08/31 06:51:14;;;;;;;;;;;13.40;99.90;;;;;;5070758;28;19932;-40
2023/08/31 06:53:40;;;;;;;;;;;13.50;99.90;;;;;;5073121;28;20015;-40
2023/08/31 06:56:07;;;;;;;;;;;13.60;99.90;;;;;;5071567;28;20011;-41
2023/08/31 06:58:34;;;;;;;;;;;13.70;99.90;;;;;;5072878;28;20041;-40
2023/08/31 07:01:01;;;;;;;;;;;13.80;99.90;;;;;;5071961;28;19925;-41
2023/08/31 07:03:27;;;;;;;;;;;13.90;99.90;;;;;;5072721;28;20372;-40
2023/08/31 07:05:54;;;;;;;;;;;14.00;99.90;;;;;;5072537;28;20300;-40
2023/08/31 07:08:22;;;;;;;;;;;14.10;99.90;;;;;;5071266;28;19925;-40
2023/08/31 07:10:50;;;;;;;;;;;14.20;99.90;;;;;;5071204;28;19925;-40
2023/08/31 07:13:17;;;;;;;;;;;14.30;99.90;;;;;;5072633;28;19924;-40
2023/08/31 07:15:43;;;;;;;;;;;14.40;99.90;;;;;;5071455;28;19943;-41
2023/08/31 07:18:10;;;;;;;;;;;14.50;99.90;;;;;;5071163;28;19932;-40
2023/08/31 07:20:37;;;;;;;;;;;14.70;99.90;;;;;;5070866;28;19924;-40
2023/08/31 07:23:04;;;;;;;;;;;14.70;99.90;;;;;;5072374;28;20365;-40
2023/08/31 07:25:32;;;;;;;;;;;14.80;99.90;;;;;;5072902;28;19925;-41
2023/08/31 07:27:59;;;;;;;;;;;14.90;99.90;;;;;;5071396;28;19931;-40
2023/08/31 07:30:25;;;;;;;;;;;15.10;99.90;;;;;;5071927;28;20358;-40
2023/08/31 07:32:52;;;;;;;;;;;15.10;99.90;;;;;;5072509;28;19924;-40
2023/08/31 07:35:19;;;;;;;;;;;15.10;99.90;;;;;;5071127;28;20384;-41
2023/08/31 07:37:45;;;;;;;;;;;15.10;99.90;;;;;;5070457;28;19932;-40
2023/08/31 07:40:12;;;;;;;;;;;15.20;99.90;;;;;;5068197;28;19929;-40
2023/08/31 07:42:40;;;;;;;;;;;15.20;99.90;;;;;;5070181;28;19951;-40
2023/08/31 07:45:08;;;;;;;;;;;15.30;99.90;;;;;;5071355;28;19933;-40
2023/08/31 07:47:34;;;;;;;;;;;15.40;99.90;;;;;;5070750;28;19924;-40
2023/08/31 07:50:01;;;;;;;;;;;15.50;99.90;;;;;;5071807;28;20407;-40
2023/08/31 07:52:28;;;;;;;;;;;15.70;99.90;;;;;;5072517;28;20048;-40
2023/08/31 07:54:55;;;;;;;;;;;15.90;99.90;;;;;;5070273;28;19925;-40
2023/08/31 07:57:21;;;;;;;;;;;15.90;99.90;;;;;;5058107;28;19924;-40
2023/08/31 07:59:49;;;;;;;;;;;15.90;99.90;;;;;;5071098;28;19931;-40
2023/08/31 08:02:16;;;;;;;;;;;15.90;99.90;;;;;;5071118;28;19930;-40
2023/08/31 08:04:43;;;;;;;;;;;15.80;99.90;;;;;;5072016;28;19928;-40
2023/08/31 08:07:10;;;;;;;;;;;15.80;99.90;;;;;;5067754;28;19932;-40
2023/08/31 08:09:36;;;;;;;;;;;15.70;99.90;;;;;;5070025;28;19947;-40
2023/08/31 08:12:03;;;;;;;;;;;15.70;99.90;;;;;;5066557;28;19936;-41
2023/08/31 08:14:30;;;;;;;;;;;15.70;99.90;;;;;;5071108;28;19928;-41
2023/08/31 08:16:58;;;;;;;;;;;15.90;99.90;;;;;;5070499;28;19924;-40
2023/08/31 08:19:25;;;;;;;;;;;16.00;99.90;;;;;;5071957;28;20398;-40
2023/08/31 08:21:51;;;;;;;;;;;16.10;99.90;;;;;;5071382;28;19924;-40
2023/08/31 08:24:18;;;;;;;;;;;16.10;99.90;;;;;;5071868;28;19924;-40
2023/08/31 08:26:45;;;;;;;;;;;16.20;99.90;;;;;;5070749;28;19928;-40
2023/08/31 08:29:11;;;;;;;;;;;16.20;99.90;;;;;;5071632;28;19924;-40
2023/08/31 08:31:38;;;;;;;;;;;16.20;99.90;;;;;;5073603;28;19970;-40
2023/08/31 08:34:06;;;;;;;;;;;16.20;99.90;;;;;;5075327;28;19924;-40
2023/08/31 08:36:33;;;;;;;;;;;16.10;99.90;;;;;;5075518;28;19924;-40
2023/08/31 08:39:00;;;;;;;;;;;16.20;99.90;;;;;;5075383;28;19932;-40
2023/08/31 08:41:26;;;;;;;;;;;16.30;99.90;;;;;;5074056;28;19924;-40
2023/08/31 08:43:53;;;;;;;;;;;16.60;99.90;;;;;;5074125;28;19929;-39
2023/08/31 08:46:20;;;;;;;;;;;16.80;99.90;;;;;;5074396;28;19928;-40
2023/08/31 08:48:46;;;;;;;;;;;17.00;99.90;;;;;;5075196;28;19924;-40
2023/08/31 08:51:14;;;;;;;;;;;16.90;99.90;;;;;;5073797;28;19978;-41
2023/08/31 08:53:41;;;;;;;;;;;16.70;99.90;;;;;;5073697;28;20015;-41
2023/08/31 08:56:08;;;;;;;;;;;16.50;99.90;;;;;;5075054;28;19932;-41
2023/08/31 08:58:35;;;;;;;;;;;16.30;99.90;;;;;;5073877;28;20461;-41
2023/08/31 09:01:01;;;;;;;;;;;16.10;99.90;;;;;;5074232;28;19974;-40
2023/08/31 09:03:28;;;;;;;;;;;16.00;99.90;;;;;;5073337;28;19931;-40
2023/08/31 09:05:55;;;;;;;;;;;16.00;99.90;;;;;;5075085;28;20024;-41
2023/08/31 09:08:27;;;;;;;;;;;16.00;99.90;;;;;;5074045;28;19925;-40
2023/08/31 09:10:54;;;;;;;;;;;16.00;99.90;;;;;;5074227;28;19928;-40
2023/08/31 09:13:21;;;;;;;;;;;16.20;99.90;;;;;;5072365;28;19924;-40
2023/08/31 09:15:49;;;;;;;;;;;16.40;99.90;;;;;;5073309;28;19924;-41
2023/08/31 09:18:16;;;;;;;;;;;16.60;99.90;;;;;;5073828;28;19932;-40
2023/08/31 09:20:43;;;;;;;;;;;16.80;99.90;;;;;;5066608;28;19979;-41
2023/08/31 09:23:10;;;;;;;;;;;17.20;99.90;;;;;;5062536;28;20377;-40
2023/08/31 09:25:41;;;;;;;;;;;17.30;99.90;;;;;;5073170;28;20380;-40
2023/08/31 09:28:07;;;;;;;;;;;17.30;99.90;;;;;;5072466;28;19932;-40
2023/08/31 09:30:35;;;;;;;;;;;17.30;99.90;;;;;;5073137;28;20343;-40
2023/08/31 09:33:03;;;;;;;;;;;17.20;99.90;;;;;;5074543;28;19935;-40
2023/08/31 09:35:30;;;;;;;;;;;17.40;99.90;;;;;;5073687;28;20392;-40
2023/08/31 09:37:58;;;;;;;;;;;17.60;99.90;;;;;;5073873;28;19924;-40
2023/08/31 09:40:24;;;;;;;;;;;17.70;99.90;;;;;;5073410;28;19925;-40
2023/08/31 09:42:52;;;;;;;;;;;17.80;99.90;;;;;;5072571;28;19986;-40
2023/08/31 09:45:19;;;;;;;;;;;17.80;99.90;;;;;;5070595;28;19925;-40
2023/08/31 09:47:46;;;;;;;;;;;17.80;99.90;;;;;;5071580;28;19978;-40
2023/08/31 09:50:13;;;;;;;;;;;17.70;99.90;;;;;;5067586;28;19935;-40
2023/08/31 09:52:41;;;;;;;;;;;17.60;99.90;;;;;;5069315;28;19924;-40
2023/08/31 09:55:08;;;;;;;;;;;17.50;99.90;;;;;;5073803;28;19925;-41
2023/08/31 09:57:34;;;;;;;;;;;17.40;99.90;;;;;;5072875;28;19924;-40
2023/08/31 10:00:03;;;;;;;;;;;17.30;99.90;;;;;;5072348;28;19932;-40
2023/08/31 10:02:30;;;;;;;;;;;17.40;99.90;;;;;;5072661;28;19979;-40
2023/08/31 10:04:57;;;;;;;;;;;17.50;99.90;;;;;;5073097;28;19962;-40
2023/08/31 10:07:23;;;;;;;;;;;17.60;99.90;;;;;;5068186;28;20332;-40
2023/08/31 10:09:50;;;;;;;;;;;17.80;99.90;;;;;;5052706;28;19925;-40
2023/08/31 10:12:17;;;;;;;;;;;18.00;99.90;;;;;;5061625;28;19936;-40
2023/08/31 10:14:46;;;;;;;;;;;18.20;99.90;;;;;;5071745;28;20300;-40
2023/08/31 10:17:14;;;;;;;;;;;18.30;99.90;;;;;;5072934;28;19968;-40
2023/08/31 10:19:40;;;;;;;;;;;18.50;99.90;;;;;;5073678;28;20651;-40
2023/08/31 10:22:07;;;;;;;;;;;18.70;99.90;;;;;;5072956;28;20396;-40
2023/08/31 10:24:51;;;;;;;;;;;18.80;99.90;;;;;;5069958;28;19946;-40
2023/08/31 10:27:18;;;;;;;;;;;18.90;99.90;;;;;;5047101;28;20000;-40
2023/08/31 10:29:45;;;;;;;;;;;19.00;99.90;;;;;;5063820;28;20412;-40
2023/08/31 10:32:12;;;;;;;;;;;19.00;99.90;;;;;;5073043;28;19940;-40
2023/08/31 10:34:40;;;;;;;;;;;19.00;99.90;;;;;;5070742;28;19925;-40
2023/08/31 10:37:20;;;;;;;;;;;18.90;99.90;;;;;;5068127;28;19963;-40
2023/08/31 10:39:48;;;;;;;;;;;18.70;99.90;;;;;;5051300;28;20255;-40
2023/08/31 10:42:15;;;;;;;;;;;18.60;99.90;;;;;;5052937;28;20339;-40
2023/08/31 10:44:42;;;;;;;;;;;18.80;99.90;;;;;;5064574;28;19942;-40
2023/08/31 10:47:09;;;;;;;;;;;18.90;99.90;;;;;;5070651;28;19959;-40
2023/08/31 10:49:37;;;;;;;;;;;19.00;99.90;;;;;;5072249;28;19932;-40
2023/08/31 10:52:17;;;;;;;;;;;19.10;99.90;;;;;;5072435;28;20292;-40
2023/08/31 10:54:44;;;;;;;;;;;19.20;99.90;;;;;;5070713;28;19996;-40
2023/08/31 10:57:12;;;;;;;;;;;19.40;99.90;;;;;;5058410;28;19932;-40
2023/08/31 10:59:45;;;;;;;;;;;19.50;99.90;;;;;;5072929;28;19958;-40
2023/08/31 11:02:27;;;;;;;;;;;19.60;99.90;;;;;;5072786;28;19994;-40
2023/08/31 11:04:54;;;;;;;;;;;19.70;99.90;;;;;;5072878;28;19974;-40
2023/08/31 11:07:24;;;;;;;;;;;19.80;99.90;;;;;;5069757;28;19939;-40
2023/08/31 11:09:50;;;;;;;;;;;19.80;99.90;;;;;;5071078;28;19946;-40
2023/08/31 11:12:17;;;;;;;;;;;19.90;99.90;;;;;;5068547;28;21399;-40
2023/08/31 11:14:44;;;;;;;;;;;20.00;99.90;;;;;;5069923;28;19958;-40
2023/08/31 11:17:10;;;;;;;;;;;20.00;99.90;;;;;;5070150;28;19959;-40
2023/08/31 11:19:38;;;;;;;;;;;20.10;99.90;;;;;;5072019;28;19948;-40
2023/08/31 11:22:04;;;;;;;;;;;20.20;99.90;;;;;;5069858;28;20012;-39
2023/08/31 11:24:32;;;;;;;;;;;20.30;99.90;;;;;;5071588;28;19942;-40
2023/08/31 11:26:59;;;;;;;;;;;20.30;99.90;;;;;;5069916;28;19925;-40
2023/08/31 11:29:27;;;;;;;;;;;20.30;99.90;;;;;;5071583;28;19941;-40
2023/08/31 11:31:56;;;;;;;;;;;20.30;99.90;;;;;;5072488;28;20344;-39
2023/08/31 11:34:23;;;;;;;;;;;20.20;99.90;;;;;;5070795;28;20293;-39
2023/08/31 11:36:50;;;;;;;;;;;20.20;99.90;;;;;;5072155;28;19966;-40
2023/08/31 11:39:18;;;;;;;;;;;20.20;99.90;;;;;;5072475;28;19964;-40
2023/08/31 11:41:46;;;;;;;;;;;20.20;99.90;;;;;;5072371;28;19943;-40
2023/08/31 11:44:13;;;;;;;;;;;20.40;99.90;;;;;;5071670;28;19938;-40
2023/08/31 11:46:40;;;;;;;;;;;20.40;99.90;;;;;;5071255;28;19989;-40
2023/08/31 11:49:07;;;;;;;;;;;20.40;99.90;;;;;;5071222;28;19939;-40
2023/08/31 11:51:34;;;;;;;;;;;20.40;99.90;;;;;;5070622;28;19970;-40
2023/08/31 11:54:02;;;;;;;;;;;20.50;99.90;;;;;;5070725;28;19943;-39
2023/08/31 11:56:39;;;;;;;;;;;20.60;99.90;;;;;;5070030;28;20050;-40
2023/08/31 11:59:09;;;;;;;;;;;20.70;99.90;;;;;;5072255;28;20354;-40
2023/08/31 12:01:38;;;;;;;;;;;20.90;99.90;;;;;;5071102;28;19950;-40
2023/08/31 12:04:10;;;;;;;;;;;21.00;99.90;;;;;;5071663;28;19991;-40
2023/08/31 12:06:36;;;;;;;;;;;21.10;99.90;;;;;;5071342;28;19948;-39
2023/08/31 12:09:04;;;;;;;;;;;21.30;99.90;;;;;;5056067;28;19992;-40
2023/08/31 12:11:31;;;;;;;;;;;21.50;99.90;;;;;;5055991;28;19970;-40
2023/08/31 12:14:00;;;;;;;;;;;21.60;99.90;;;;;;5055819;28;19924;-40
2023/08/31 12:16:35;;;;;;;;;;;21.60;99.90;;;;;;5061475;28;19951;-40
2023/08/31 12:19:03;;;;;;;;;;;21.60;99.90;;;;;;5075712;28;19936;-40
2023/08/31 12:21:30;;;;;;;;;;;21.60;99.90;;;;;;5075914;28;19997;-39
2023/08/31 12:23:57;;;;;;;;;;;21.70;99.90;;;;;;5075726;28;19944;-40
2023/08/31 12:26:24;;;;;;;;;;;21.70;99.90;;;;;;5073668;28;20446;-40
2023/08/31 12:28:51;;;;;;;;;;;21.60;99.90;;;;;;5075946;28;19946;-40
2023/08/31 12:31:17;;;;;;;;;;;21.60;99.90;;;;;;5075452;28;19939;-40
2023/08/31 12:33:46;;;;;;;;;;;21.70;99.90;;;;;;5075732;28;20385;-40
2023/08/31 12:36:13;;;;;;;;;;;21.80;99.90;;;;;;5074891;28;19968;-40
2023/08/31 12:38:40;;;;;;;;;;;21.80;99.90;;;;;;5074700;28;20004;-40
2023/08/31 12:41:06;;;;;;;;;;;21.90;99.90;;;;;;5075398;28;19945;-40
2023/08/31 12:43:33;;;;;;;;;;;22.00;99.90;;;;;;5075430;28;19941;-40
2023/08/31 12:46:00;;;;;;;;;;;22.20;99.90;;;;;;5074085;28;19963;-39
2023/08/31 12:48:26;;;;;;;;;;;22.20;99.90;;;;;;5074592;28;19939;-39
2023/08/31 12:50:55;;;;;;;;;;;22.10;99.90;;;;;;5075215;28;19925;-40
2023/08/31 12:53:21;;;;;;;;;;;22.10;99.90;;;;;;5065921;28;19941;-40
2023/08/31 12:55:49;;;;;;;;;;;22.20;99.90;;;;;;5055244;28;19940;-40
2023/08/31 12:58:16;;;;;;;;;;;22.30;99.90;;;;;;5053753;28;19970;-40
2023/08/31 13:00:43;;;;;;;;;;;22.20;99.90;;;;;;5065434;28;20425;-40
2023/08/31 13:03:10;;;;;;;;;;;22.10;99.90;;;;;;5073471;28;19948;-39
2023/08/31 13:05:39;;;;;;;;;;;22.00;99.90;;;;;;5075178;28;19948;-40
2023/08/31 13:08:07;;;;;;;;;;;21.90;99.90;;;;;;5074907;28;19943;-39
2023/08/31 13:10:35;;;;;;;;;;;21.80;99.90;;;;;;5074018;28;20322;-40
2023/08/31 13:13:02;;;;;;;;;;;21.80;99.90;;;;;;5067343;28;19948;-40
2023/08/31 13:15:29;;;;;;;;;;;22.00;99.90;;;;;;5054164;28;19986;-40
2023/08/31 13:17:56;;;;;;;;;;;22.10;99.90;;;;;;5054421;28;20330;-40
2023/08/31 13:20:22;;;;;;;;;;;22.20;99.90;;;;;;5072042;28;19993;-40
2023/08/31 13:22:49;;;;;;;;;;;22.20;99.90;;;;;;5074623;28;19984;-40
2023/08/31 13:25:17;;;;;;;;;;;22.30;99.90;;;;;;5073247;28;19943;-40
2023/08/31 13:27:44;;;;;;;;;;;22.40;99.90;;;;;;5074502;28;20306;-40
2023/08/31 13:30:12;;;;;;;;;;;22.60;99.90;;;;;;5072701;28;19939;-40
2023/08/31 13:32:39;;;;;;;;;;;22.80;99.90;;;;;;5074579;28;19948;-40
2023/08/31 13:35:07;;;;;;;;;;;23.00;99.90;;;;;;5074436;28;19942;-40
2023/08/31 13:37:34;;;;;;;;;;;23.20;99.90;;;;;;5074296;28;19970;-40
2023/08/31 13:40:01;;;;;;;;;;;23.30;99.90;;;;;;5072488;28;20444;-41
2023/08/31 13:42:33;;;;;;;;;;;23.40;99.30;;;;;;5074219;28;19941;-40
2023/08/31 13:44:59;;;;;;;;;;;23.30;99.90;;;;;;5067884;28;19939;-40
2023/08/31 13:47:26;;;;;;;;;;;23.40;98.90;;;;;;5054051;28;20409;-40
2023/08/31 13:49:53;;;;;;;;;;;23.50;98.90;;;;;;5060577;28;19970;-40
2023/08/31 13:52:21;;;;;;;;;;;23.50;97.20;;;;;;5074158;28;19961;-40
2023/08/31 13:54:47;;;;;;;;;;;23.30;98.30;;;;;;5072755;28;19955;-40
2023/08/31 13:57:17;;;;;;;;;;;23.20;98.20;;;;;;5073654;28;19967;-40
2023/08/31 13:59:45;;;;;;;;;;;23.10;96.70;;;;;;5073880;28;19969;-40
2023/08/31 14:02:11;;;;;;;;;;;23.10;98.80;;;;;;5073895;28;20020;-40
2023/08/31 14:04:38;;;;;;;;;;;23.00;98.70;;;;;;5072267;28;19990;-40
2023/08/31 14:07:05;;;;;;;;;;;23.10;99.20;;;;;;5073651;28;19973;-40
2023/08/31 14:09:31;;;;;;;;;;;23.00;99.50;;;;;;5073789;28;19958;-40
2023/08/31 14:11:58;;;;;;;;;;;23.00;99.90;;;;;;5073418;28;19940;-40
2023/08/31 14:14:25;;;;;;;;;;;23.00;99.90;;;;;;5071811;28;19938;-40
2023/08/31 14:16:53;;;;;;;;;;;22.80;99.80;;;;;;5073533;28;19941;-40